sensor_id;sensor_type;location;lat;lon;timestamp;temperature;humidity
6740;DHT22;3407;49.882;10.920;2023-05-18T00:01:29;7.10;1.00
6740;DHT22;3407;49.882;10.920;2023-05-18T00:06:25;7.10;99.90
6740;DHT22;3407;49.882;10.920;2023-05-18T00:11:22;6.90;99.90
6740;DHT22;3407;49.882;10.920;2023-05-18T00:16:17;6.80;99.90
6740;DHT22;3407;49.882;10.920;2023-05-18T00:21:13;6.60;99.90
6740;DHT22;3407;49.882;10.920;2023-05-18T00:26:10;6.50;99.90
6740;DHT22;3407;49.882;10.920;2023-05-18T00:31:05;6.50;1.00
6740;DHT22;3407;49.882;10.920;2023-05-18T00:36:01;6.40;1.00
6740;DHT22;3407;49.882;10.920;2023-05-18T00:40:57;6.40;1.00
6740;DHT22;3407;49.882;10.920;2023-05-18T00:45:52;6.40;1.00
6740;DHT22;3407;49.882;10.920;2023-05-18T00:50:48;6.40;1.00
6740;DHT22;3407;49.882;10.920;2023-05-18T00:55:43;6.60;99.90
6740;DHT22;3407;49.882;10.920;2023-05-18T01:00:39;6.50;1.00
6740;DHT22;3407;49.882;10.920;2023-05-18T01:05:35;6.50;99.90
6740;DHT22;3407;49.882;10.920;2023-05-18T01:10:32;6.30;99.90
6740;DHT22;3407;49.882;10.920;2023-05-18T01:15:34;6.30;1.00
6740;DHT22;3407;49.882;10.920;2023-05-18T01:30:50;6.50;1.00
6740;DHT22;3407;49.882;10.920;2023-05-18T01:35:46;6.40;1.00
6740;DHT22;3407;49.882;10.920;2023-05-18T01:46:15;6.40;1.00
6740;DHT22;3407;49.882;10.920;2023-05-18T01:51:12;6.40;11.10
6740;DHT22;3407;49.882;10.920;2023-05-18T01:56:09;6.30;1.00
6740;DHT22;3407;49.882;10.920;2023-05-18T02:01:07;6.30;67.80
6740;DHT22;3407;49.882;10.920;2023-05-18T02:06:02;6.30;99.90
6740;DHT22;3407;49.882;10.920;2023-05-18T02:10:58;6.30;1.00
6740;DHT22;3407;49.882;10.920;2023-05-18T02:15:53;6.30;1.00
6740;DHT22;3407;49.882;10.920;2023-05-18T02:20:49;6.30;1.00
6740;DHT22;3407;49.882;10.920;2023-05-18T02:25:45;6.20;1.00
6740;DHT22;3407;49.882;10.920;2023-05-18T02:30:41;6.20;1.00
6740;DHT22;3407;49.882;10.920;2023-05-18T02:35:37;6.30;1.00
6740;DHT22;3407;49.882;10.920;2023-05-18T02:40:32;6.20;1.00
6740;DHT22;3407;49.882;10.920;2023-05-18T02:45:28;6.20;1.00
6740;DHT22;3407;49.882;10.920;2023-05-18T02:50:24;6.10;1.00
6740;DHT22;3407;49.882;10.920;2023-05-18T02:55:19;6.10;18.90
6740;DHT22;3407;49.882;10.920;2023-05-18T03:00:15;6.10;1.00
6740;DHT22;3407;49.882;10.920;2023-05-18T03:05:12;6.10;1.00
6740;DHT22;3407;49.882;10.920;2023-05-18T03:10:07;6.00;1.00
6740;DHT22;3407;49.882;10.920;2023-05-18T03:15:04;6.00;1.00
6740;DHT22;3407;49.882;10.920;2023-05-18T03:19:59;6.00;24.50
6740;DHT22;3407;49.882;10.920;2023-05-18T03:24:55;5.90;1.00
6740;DHT22;3407;49.882;10.920;2023-05-18T03:29:51;6.00;1.00
6740;DHT22;3407;49.882;10.920;2023-05-18T03:34:51;6.00;1.00
6740;DHT22;3407;49.882;10.920;2023-05-18T03:39:47;6.00;1.00
6740;DHT22;3407;49.882;10.920;2023-05-18T03:44:42;6.00;99.90
6740;DHT22;3407;49.882;10.920;2023-05-18T03:49:38;6.00;99.90
6740;DHT22;3407;49.882;10.920;2023-05-18T03:54:33;6.10;99.90
6740;DHT22;3407;49.882;10.920;2023-05-18T03:59:29;6.20;99.90
6740;DHT22;3407;49.882;10.920;2023-05-18T04:04:24;6.20;99.90
6740;DHT22;3407;49.882;10.920;2023-05-18T04:09:21;6.30;1.00
6740;DHT22;3407;49.882;10.920;2023-05-18T04:14:18;6.50;99.90
6740;DHT22;3407;49.882;10.920;2023-05-18T04:19:15;6.80;1.00
6740;DHT22;3407;49.882;10.920;2023-05-18T04:24:10;7.10;99.90
6740;DHT22;3407;49.882;10.920;2023-05-18T04:29:08;7.50;99.90
6740;DHT22;3407;49.882;10.920;2023-05-18T04:34:05;7.90;1.00
6740;DHT22;3407;49.882;10.920;2023-05-18T04:39:01;8.50;1.00
6740;DHT22;3407;49.882;10.920;2023-05-18T04:44:02;9.00;1.00
6740;DHT22;3407;49.882;10.920;2023-05-18T04:48:58;9.50;99.90
6740;DHT22;3407;49.882;10.920;2023-05-18T04:53:55;9.90;1.00
6740;DHT22;3407;49.882;10.920;2023-05-18T04:58:51;10.20;1.00
6740;DHT22;3407;49.882;10.920;2023-05-18T05:03:46;10.60;1.00
6740;DHT22;3407;49.882;10.920;2023-05-18T05:08:42;11.80;1.00
6740;DHT22;3407;49.882;10.920;2023-05-18T05:13:37;13.60;99.90
6740;DHT22;3407;49.882;10.920;2023-05-18T05:18:33;14.80;99.90
6740;DHT22;3407;49.882;10.920;2023-05-18T05:23:28;15.00;99.90
6740;DHT22;3407;49.882;10.920;2023-05-18T05:28:24;16.10;99.90
6740;DHT22;3407;49.882;10.920;2023-05-18T05:33:19;16.90;99.90
6740;DHT22;3407;49.882;10.920;2023-05-18T05:38:15;17.00;99.90
6740;DHT22;3407;49.882;10.920;2023-05-18T05:43:10;16.20;99.90
6740;DHT22;3407;49.882;10.920;2023-05-18T05:48:06;17.00;99.90
6740;DHT22;3407;49.882;10.920;2023-05-18T05:53:01;17.70;99.90
6740;DHT22;3407;49.882;10.920;2023-05-18T05:57:57;17.40;99.90
6740;DHT22;3407;49.882;10.920;2023-05-18T06:02:52;17.50;99.90
6740;DHT22;3407;49.882;10.920;2023-05-18T06:07:48;18.30;99.90
6740;DHT22;3407;49.882;10.920;2023-05-18T06:12:44;19.10;99.90
6740;DHT22;3407;49.882;10.920;2023-05-18T06:17:39;18.20;99.90
6740;DHT22;3407;49.882;10.920;2023-05-18T06:22:35;19.20;99.90
6740;DHT22;3407;49.882;10.920;2023-05-18T06:27:31;20.00;99.90
6740;DHT22;3407;49.882;10.920;2023-05-18T06:32:27;20.90;99.90
6740;DHT22;3407;49.882;10.920;2023-05-18T06:37:22;22.70;99.90
6740;DHT22;3407;49.882;10.920;2023-05-18T06:42:18;23.10;99.90
6740;DHT22;3407;49.882;10.920;2023-05-18T06:47:13;23.80;99.90
6740;DHT22;3407;49.882;10.920;2023-05-18T06:52:09;23.20;98.90
6740;DHT22;3407;49.882;10.920;2023-05-18T06:57:05;22.60;98.20
6740;DHT22;3407;49.882;10.920;2023-05-18T07:02:01;23.20;98.00
6740;DHT22;3407;49.882;10.920;2023-05-18T07:06:56;24.00;95.80
6740;DHT22;3407;49.882;10.920;2023-05-18T07:11:52;23.00;95.00
6740;DHT22;3407;49.882;10.920;2023-05-18T07:16:47;23.70;93.00
6740;DHT22;3407;49.882;10.920;2023-05-18T07:21:43;23.00;91.60
6740;DHT22;3407;49.882;10.920;2023-05-18T07:26:38;22.90;91.80
6740;DHT22;3407;49.882;10.920;2023-05-18T07:31:34;23.80;92.30
6740;DHT22;3407;49.882;10.920;2023-05-18T07:36:33;25.00;91.20
6740;DHT22;3407;49.882;10.920;2023-05-18T07:41:29;25.10;89.20
6740;DHT22;3407;49.882;10.920;2023-05-18T07:46:26;24.50;85.50
6740;DHT22;3407;49.882;10.920;2023-05-18T07:51:21;25.50;87.60
6740;DHT22;3407;49.882;10.920;2023-05-18T07:56:17;25.30;81.80
6740;DHT22;3407;49.882;10.920;2023-05-18T08:01:12;23.80;83.50
6740;DHT22;3407;49.882;10.920;2023-05-18T08:06:08;24.10;83.30
6740;DHT22;3407;49.882;10.920;2023-05-18T08:11:04;24.00;84.30
6740;DHT22;3407;49.882;10.920;2023-05-18T08:15:59;24.40;83.00
6740;DHT22;3407;49.882;10.920;2023-05-18T08:20:55;25.40;79.10
6740;DHT22;3407;49.882;10.920;2023-05-18T08:25:51;25.00;78.10
6740;DHT22;3407;49.882;10.920;2023-05-18T08:30:46;24.10;77.90
6740;DHT22;3407;49.882;10.920;2023-05-18T08:35:42;23.50;81.10
6740;DHT22;3407;49.882;10.920;2023-05-18T08:40:57;24.30;76.70
6740;DHT22;3407;49.882;10.920;2023-05-18T08:46:03;24.40;78.40
6740;DHT22;3407;49.882;10.920;2023-05-18T08:51:01;24.00;73.10
6740;DHT22;3407;49.882;10.920;2023-05-18T08:55:59;22.20;74.50
6740;DHT22;3407;49.882;10.920;2023-05-18T09:00:55;23.30;75.50
6740;DHT22;3407;49.882;10.920;2023-05-18T09:05:51;24.40;73.00
6740;DHT22;3407;49.882;10.920;2023-05-18T09:10:47;21.60;71.00
6740;DHT22;3407;49.882;10.920;2023-05-18T09:15:44;20.20;71.50
6740;DHT22;3407;49.882;10.920;2023-05-18T09:20:40;20.10;77.40
6740;DHT22;3407;49.882;10.920;2023-05-18T09:25:42;21.50;93.20
6740;DHT22;3407;49.882;10.920;2023-05-18T09:30:42;20.30;75.10
6740;DHT22;3407;49.882;10.920;2023-05-18T09:35:38;21.10;74.60
6740;DHT22;3407;49.882;10.920;2023-05-18T09:40:34;23.80;73.80
6740;DHT22;3407;49.882;10.920;2023-05-18T09:45:29;25.50;68.90
6740;DHT22;3407;49.882;10.920;2023-05-18T09:50:26;22.10;64.70
6740;DHT22;3407;49.882;10.920;2023-05-18T09:55:22;20.40;73.50
6740;DHT22;3407;49.882;10.920;2023-05-18T10:00:18;21.90;73.90
6740;DHT22;3407;49.882;10.920;2023-05-18T10:05:18;23.80;70.50
6740;DHT22;3407;49.882;10.920;2023-05-18T10:10:18;24.20;66.60
6740;DHT22;3407;49.882;10.920;2023-05-18T10:15:16;24.40;66.70
6740;DHT22;3407;49.882;10.920;2023-05-18T10:20:17;26.00;65.00
6740;DHT22;3407;49.882;10.920;2023-05-18T10:25:21;24.50;63.00
6740;DHT22;3407;49.882;10.920;2023-05-18T10:30:16;24.40;63.00
6740;DHT22;3407;49.882;10.920;2023-05-18T10:35:12;24.50;65.10
6740;DHT22;3407;49.882;10.920;2023-05-18T10:40:09;25.60;59.00
6740;DHT22;3407;49.882;10.920;2023-05-18T10:45:06;22.00;59.00
6740;DHT22;3407;49.882;10.920;2023-05-18T10:50:04;22.40;67.90
6740;DHT22;3407;49.882;10.920;2023-05-18T10:55:00;25.80;62.80
6740;DHT22;3407;49.882;10.920;2023-05-18T10:59:56;27.10;58.80
6740;DHT22;3407;49.882;10.920;2023-05-18T11:04:52;28.80;58.20
6740;DHT22;3407;49.882;10.920;2023-05-18T11:09:48;29.60;53.50
6740;DHT22;3407;49.882;10.920;2023-05-18T11:14:52;27.00;50.00
6740;DHT22;3407;49.882;10.920;2023-05-18T11:20:11;26.90;53.00
6740;DHT22;3407;49.882;10.920;2023-05-18T11:25:08;29.00;74.30
6740;DHT22;3407;49.882;10.920;2023-05-18T11:30:06;27.30;47.50
6740;DHT22;3407;49.882;10.920;2023-05-18T11:35:23;26.60;49.70
6740;DHT22;3407;49.882;10.920;2023-05-18T11:40:51;28.00;52.50
6740;DHT22;3407;49.882;10.920;2023-05-18T11:45:57;29.10;48.90
6740;DHT22;3407;49.882;10.920;2023-05-18T11:50:53;27.60;43.50
6740;DHT22;3407;49.882;10.920;2023-05-18T11:55:52;25.50;46.60
6740;DHT22;3407;49.882;10.920;2023-05-18T12:00:49;27.00;47.90
6740;DHT22;3407;49.882;10.920;2023-05-18T12:05:45;29.30;44.10
6740;DHT22;3407;49.882;10.920;2023-05-18T12:10:44;29.60;45.40
6740;DHT22;3407;49.882;10.920;2023-05-18T12:15:42;26.60;40.60
6740;DHT22;3407;49.882;10.920;2023-05-18T12:20:38;23.10;46.40
6740;DHT22;3407;49.882;10.920;2023-05-18T12:25:34;24.60;48.70
6740;DHT22;3407;49.882;10.920;2023-05-18T12:30:30;24.00;45.70
6740;DHT22;3407;49.882;10.920;2023-05-18T12:35:29;24.90;49.30
6740;DHT22;3407;49.882;10.920;2023-05-18T12:40:26;27.20;46.40
6740;DHT22;3407;49.882;10.920;2023-05-18T12:45:26;28.20;43.10
6740;DHT22;3407;49.882;10.920;2023-05-18T12:50:23;29.10;43.40
6740;DHT22;3407;49.882;10.920;2023-05-18T12:55:22;28.10;40.10
6740;DHT22;3407;49.882;10.920;2023-05-18T13:00:19;28.10;40.20
6740;DHT22;3407;49.882;10.920;2023-05-18T13:05:15;25.60;41.10
6740;DHT22;3407;49.882;10.920;2023-05-18T13:10:13;24.80;47.40
6740;DHT22;3407;49.882;10.920;2023-05-18T13:15:11;25.00;44.00
6740;DHT22;3407;49.882;10.920;2023-05-18T13:20:13;25.60;44.70
6740;DHT22;3407;49.882;10.920;2023-05-18T13:25:09;26.20;43.90
6740;DHT22;3407;49.882;10.920;2023-05-18T13:30:06;24.80;43.10
6740;DHT22;3407;49.882;10.920;2023-05-18T13:35:01;23.90;43.60
6740;DHT22;3407;49.882;10.920;2023-05-18T13:39:57;24.10;49.80
6740;DHT22;3407;49.882;10.920;2023-05-18T13:44:52;25.30;47.00
6740;DHT22;3407;49.882;10.920;2023-05-18T13:49:48;24.00;44.60
6740;DHT22;3407;49.882;10.920;2023-05-18T13:54:43;22.20;45.70
6740;DHT22;3407;49.882;10.920;2023-05-18T13:59:39;21.90;49.60
6740;DHT22;3407;49.882;10.920;2023-05-18T14:04:35;21.90;48.10
6740;DHT22;3407;49.882;10.920;2023-05-18T14:09:30;21.40;51.00
6740;DHT22;3407;49.882;10.920;2023-05-18T14:14:26;21.70;51.30
6740;DHT22;3407;49.882;10.920;2023-05-18T14:19:21;21.90;51.70
6740;DHT22;3407;49.882;10.920;2023-05-18T14:24:17;20.90;49.80
6740;DHT22;3407;49.882;10.920;2023-05-18T14:29:14;20.50;52.30
6740;DHT22;3407;49.882;10.920;2023-05-18T14:34:09;20.10;54.60
6740;DHT22;3407;49.882;10.920;2023-05-18T14:39:05;20.10;55.00
6740;DHT22;3407;49.882;10.920;2023-05-18T14:44:01;19.90;54.60
6740;DHT22;3407;49.882;10.920;2023-05-18T14:48:58;19.40;55.90
6740;DHT22;3407;49.882;10.920;2023-05-18T14:53:53;19.30;56.60
6740;DHT22;3407;49.882;10.920;2023-05-18T14:58:49;19.60;57.50
6740;DHT22;3407;49.882;10.920;2023-05-18T15:03:44;20.10;59.00
6740;DHT22;3407;49.882;10.920;2023-05-18T15:08:40;20.30;58.00
6740;DHT22;3407;49.882;10.920;2023-05-18T15:13:35;20.10;59.10
6740;DHT22;3407;49.882;10.920;2023-05-18T15:18:31;19.70;57.50
6740;DHT22;3407;49.882;10.920;2023-05-18T15:23:27;19.10;58.80
6740;DHT22;3407;49.882;10.920;2023-05-18T15:28:22;18.90;60.10
6740;DHT22;3407;49.882;10.920;2023-05-18T15:33:18;18.40;60.70
6740;DHT22;3407;49.882;10.920;2023-05-18T15:38:13;18.40;62.10
6740;DHT22;3407;49.882;10.920;2023-05-18T15:43:09;18.30;56.80
6740;DHT22;3407;49.882;10.920;2023-05-18T15:48:05;18.30;60.70
6740;DHT22;3407;49.882;10.920;2023-05-18T15:53:00;18.50;61.40
6740;DHT22;3407;49.882;10.920;2023-05-18T15:57:55;18.50;64.10
6740;DHT22;3407;49.882;10.920;2023-05-18T16:02:51;18.40;65.00
6740;DHT22;3407;49.882;10.920;2023-05-18T16:07:47;18.40;66.50
6740;DHT22;3407;49.882;10.920;2023-05-18T16:12:42;18.20;63.10
6740;DHT22;3407;49.882;10.920;2023-05-18T16:17:38;18.00;62.70
6740;DHT22;3407;49.882;10.920;2023-05-18T16:22:33;17.80;63.50
6740;DHT22;3407;49.882;10.920;2023-05-18T16:27:28;17.80;64.20
6740;DHT22;3407;49.882;10.920;2023-05-18T16:32:24;17.60;64.60
6740;DHT22;3407;49.882;10.920;2023-05-18T16:37:21;17.50;67.30
6740;DHT22;3407;49.882;10.920;2023-05-18T16:42:17;17.20;68.60
6740;DHT22;3407;49.882;10.920;2023-05-18T16:47:14;17.20;70.00
6740;DHT22;3407;49.882;10.920;2023-05-18T16:52:10;17.20;71.00
6740;DHT22;3407;49.882;10.920;2023-05-18T16:57:06;17.10;69.30
6740;DHT22;3407;49.882;10.920;2023-05-18T17:02:01;16.90;69.80
6740;DHT22;3407;49.882;10.920;2023-05-18T17:06:57;16.70;70.60
6740;DHT22;3407;49.882;10.920;2023-05-18T17:11:53;16.50;72.00
6740;DHT22;3407;49.882;10.920;2023-05-18T17:16:48;16.50;75.70
6740;DHT22;3407;49.882;10.920;2023-05-18T17:21:44;16.50;76.70
6740;DHT22;3407;49.882;10.920;2023-05-18T17:26:39;16.50;78.00
6740;DHT22;3407;49.882;10.920;2023-05-18T17:31:35;16.30;79.60
6740;DHT22;3407;49.882;10.920;2023-05-18T17:36:30;16.20;80.90
6740;DHT22;3407;49.882;10.920;2023-05-18T17:41:26;16.20;82.10
6740;DHT22;3407;49.882;10.920;2023-05-18T17:46:21;16.00;84.00
6740;DHT22;3407;49.882;10.920;2023-05-18T17:51:17;16.00;85.10
6740;DHT22;3407;49.882;10.920;2023-05-18T17:56:13;15.70;85.50
6740;DHT22;3407;49.882;10.920;2023-05-18T18:01:08;15.50;87.00
6740;DHT22;3407;49.882;10.920;2023-05-18T18:06:05;15.30;89.40
6740;DHT22;3407;49.882;10.920;2023-05-18T18:11:01;15.20;90.20
6740;DHT22;3407;49.882;10.920;2023-05-18T18:15:57;15.00;90.80
6740;DHT22;3407;49.882;10.920;2023-05-18T18:20:52;14.90;92.30
6740;DHT22;3407;49.882;10.920;2023-05-18T18:25:48;14.80;93.30
6740;DHT22;3407;49.882;10.920;2023-05-18T18:30:44;14.50;94.00
6740;DHT22;3407;49.882;10.920;2023-05-18T18:35:41;14.40;96.60
6740;DHT22;3407;49.882;10.920;2023-05-18T18:40:37;14.30;96.60
6740;DHT22;3407;49.882;10.920;2023-05-18T18:45:33;14.20;97.20
6740;DHT22;3407;49.882;10.920;2023-05-18T18:50:29;14.10;98.70
6740;DHT22;3407;49.882;10.920;2023-05-18T18:55:24;14.00;99.90
6740;DHT22;3407;49.882;10.920;2023-05-18T19:00:20;13.90;99.90
6740;DHT22;3407;49.882;10.920;2023-05-18T19:05:16;13.70;99.90
6740;DHT22;3407;49.882;10.920;2023-05-18T19:10:16;13.60;99.90
6740;DHT22;3407;49.882;10.920;2023-05-18T19:15:12;13.50;99.90
6740;DHT22;3407;49.882;10.920;2023-05-18T19:20:08;13.40;99.90
6740;DHT22;3407;49.882;10.920;2023-05-18T19:25:04;13.30;99.90
6740;DHT22;3407;49.882;10.920;2023-05-18T19:29:59;13.10;99.90
6740;DHT22;3407;49.882;10.920;2023-05-18T19:34:58;13.00;99.90
6740;DHT22;3407;49.882;10.920;2023-05-18T19:39:53;13.00;99.90
6740;DHT22;3407;49.882;10.920;2023-05-18T19:44:49;12.90;99.90
6740;DHT22;3407;49.882;10.920;2023-05-18T19:49:44;12.90;99.90
6740;DHT22;3407;49.882;10.920;2023-05-18T19:54:40;12.90;99.90
6740;DHT22;3407;49.882;10.920;2023-05-18T19:59:36;12.90;99.90
6740;DHT22;3407;49.882;10.920;2023-05-18T20:04:31;12.90;99.90
6740;DHT22;3407;49.882;10.920;2023-05-18T20:09:28;12.80;99.90
6740;DHT22;3407;49.882;10.920;2023-05-18T20:14:24;12.80;99.90
6740;DHT22;3407;49.882;10.920;2023-05-18T20:19:19;12.70;99.90
6740;DHT22;3407;49.882;10.920;2023-05-18T20:24:16;12.70;99.90
6740;DHT22;3407;49.882;10.920;2023-05-18T20:29:11;12.70;99.90
6740;DHT22;3407;49.882;10.920;2023-05-18T20:34:07;12.60;99.90
6740;DHT22;3407;49.882;10.920;2023-05-18T20:39:02;12.50;99.90
6740;DHT22;3407;49.882;10.920;2023-05-18T20:43:58;12.50;99.90
6740;DHT22;3407;49.882;10.920;2023-05-18T20:48:56;12.40;99.90
6740;DHT22;3407;49.882;10.920;2023-05-18T20:53:51;12.40;99.90
6740;DHT22;3407;49.882;10.920;2023-05-18T20:58:47;12.30;99.90
6740;DHT22;3407;49.882;10.920;2023-05-18T21:03:44;12.20;99.90
6740;DHT22;3407;49.882;10.920;2023-05-18T21:08:40;12.20;99.90
6740;DHT22;3407;49.882;10.920;2023-05-18T21:13:35;12.10;99.90
6740;DHT22;3407;49.882;10.920;2023-05-18T21:18:31;12.10;99.90
6740;DHT22;3407;49.882;10.920;2023-05-18T21:23:28;12.10;99.90
6740;DHT22;3407;49.882;10.920;2023-05-18T21:28:24;12.10;99.90
6740;DHT22;3407;49.882;10.920;2023-05-18T21:33:20;12.10;99.90
6740;DHT22;3407;49.882;10.920;2023-05-18T21:38:16;12.00;99.90
6740;DHT22;3407;49.882;10.920;2023-05-18T21:43:11;12.00;99.90
6740;DHT22;3407;49.882;10.920;2023-05-18T21:48:07;11.90;99.90
6740;DHT22;3407;49.882;10.920;2023-05-18T21:53:03;11.80;99.90
6740;DHT22;3407;49.882;10.920;2023-05-18T21:57:58;11.80;99.90
6740;DHT22;3407;49.882;10.920;2023-05-18T22:02:54;11.80;99.90
6740;DHT22;3407;49.882;10.920;2023-05-18T22:07:50;11.70;99.90
6740;DHT22;3407;49.882;10.920;2023-05-18T22:12:46;11.70;99.90
6740;DHT22;3407;49.882;10.920;2023-05-18T22:17:42;11.60;99.90
6740;DHT22;3407;49.882;10.920;2023-05-18T22:22:38;11.60;99.90
6740;DHT22;3407;49.882;10.920;2023-05-18T22:27:34;11.50;99.90
6740;DHT22;3407;49.882;10.920;2023-05-18T22:32:32;11.50;99.90
6740;DHT22;3407;49.882;10.920;2023-05-18T22:37:28;11.40;99.90
6740;DHT22;3407;49.882;10.920;2023-05-18T22:42:23;11.40;99.90
6740;DHT22;3407;49.882;10.920;2023-05-18T22:47:19;11.40;99.90
6740;DHT22;3407;49.882;10.920;2023-05-18T22:52:17;11.40;99.90
6740;DHT22;3407;49.882;10.920;2023-05-18T22:57:13;11.40;99.90
6740;DHT22;3407;49.882;10.920;2023-05-18T23:02:09;11.30;99.90
6740;DHT22;3407;49.882;10.920;2023-05-18T23:07:05;11.30;99.90
6740;DHT22;3407;49.882;10.920;2023-05-18T23:12:00;11.40;99.90
6740;DHT22;3407;49.882;10.920;2023-05-18T23:16:56;11.40;99.90
6740;DHT22;3407;49.882;10.920;2023-05-18T23:21:53;11.50;99.90
6740;DHT22;3407;49.882;10.920;2023-05-18T23:26:48;11.50;99.90
6740;DHT22;3407;49.882;10.920;2023-05-18T23:31:44;11.60;99.90
6740;DHT22;3407;49.882;10.920;2023-05-18T23:36:39;11.60;99.90
6740;DHT22;3407;49.882;10.920;2023-05-18T23:41:38;11.60;99.90
6740;DHT22;3407;49.882;10.920;2023-05-18T23:46:34;11.60;99.90
6740;DHT22;3407;49.882;10.920;2023-05-18T23:51:32;11.60;99.90
6740;DHT22;3407;49.882;10.920;2023-05-18T23:56:30;11.50;99.90
